sensor_id;sensor_type;location;lat;lon;timestamp;pressure;altitude;pressure_sealevel;temperature;humidity
11750;BME280;5932;42.656;23.236;2022-08-16T00:01:58;93254.78;;;19.15;87.80
11750;BME280;5932;42.656;23.236;2022-08-16T00:04:25;93259.13;;;19.22;87.47
11750;BME280;5932;42.656;23.236;2022-08-16T00:06:52;93257.63;;;19.21;89.12
11750;BME280;5932;42.656;23.236;2022-08-16T00:09:18;93253.63;;;19.22;88.57
11750;BME280;5932;42.656;23.236;2022-08-16T00:11:46;93254.69;;;19.24;88.73
11750;BME280;5932;42.656;23.236;2022-08-16T00:14:17;93249.19;;;19.24;88.22
11750;BME280;5932;42.656;23.236;2022-08-16T00:16:45;93247.94;;;19.25;87.36
11750;BME280;5932;42.656;23.236;2022-08-16T00:19:13;93255.34;;;19.34;85.56
11750;BME280;5932;42.656;23.236;2022-08-16T00:21:41;93255.34;;;19.34;86.11
11750;BME280;5932;42.656;23.236;2022-08-16T00:24:08;93256.13;;;19.34;87.75
11750;BME280;5932;42.656;23.236;2022-08-16T00:26:35;93241.72;;;19.25;88.34
11750;BME280;5932;42.656;23.236;2022-08-16T00:29:02;93251.06;;;19.33;88.42
11750;BME280;5932;42.656;23.236;2022-08-16T00:31:32;93251.63;;;19.37;89.15
11750;BME280;5932;42.656;23.236;2022-08-16T00:33:59;93250.91;;;19.36;90.01
11750;BME280;5932;42.656;23.236;2022-08-16T00:36:26;93256.66;;;19.38;90.22
11750;BME280;5932;42.656;23.236;2022-08-16T00:38:53;93262.25;;;19.44;90.26
11750;BME280;5932;42.656;23.236;2022-08-16T00:41:20;93263.75;;;19.45;90.38
11750;BME280;5932;42.656;23.236;2022-08-16T00:43:47;93266.69;;;19.41;91.16
11750;BME280;5932;42.656;23.236;2022-08-16T00:46:20;93275.34;;;19.34;91.55
11750;BME280;5932;42.656;23.236;2022-08-16T00:48:49;93284.97;;;19.30;91.49
11750;BME280;5932;42.656;23.236;2022-08-16T00:51:18;93288.47;;;19.30;92.46
11750;BME280;5932;42.656;23.236;2022-08-16T00:53:45;93292.16;;;19.27;92.59
11750;BME280;5932;42.656;23.236;2022-08-16T00:56:15;93286.66;;;19.27;92.40
11750;BME280;5932;42.656;23.236;2022-08-16T00:58:45;93285.72;;;19.30;91.62
11750;BME280;5932;42.656;23.236;2022-08-16T01:01:13;93294.56;;;19.34;92.99
11750;BME280;5932;42.656;23.236;2022-08-16T01:03:42;93300.22;;;19.31;93.18
11750;BME280;5932;42.656;23.236;2022-08-16T01:06:11;93298.69;;;19.30;90.88
11750;BME280;5932;42.656;23.236;2022-08-16T01:08:39;93298.41;;;19.28;91.74
11750;BME280;5932;42.656;23.236;2022-08-16T01:11:08;93290.47;;;19.30;92.30
11750;BME280;5932;42.656;23.236;2022-08-16T01:13:36;93292.72;;;19.31;92.02
11750;BME280;5932;42.656;23.236;2022-08-16T01:16:06;93297.75;;;19.33;91.29
11750;BME280;5932;42.656;23.236;2022-08-16T01:18:38;93302.31;;;19.36;91.38
11750;BME280;5932;42.656;23.236;2022-08-16T01:21:20;93302.41;;;19.27;91.32
11750;BME280;5932;42.656;23.236;2022-08-16T01:24:01;93302.97;;;19.31;92.49
11750;BME280;5932;42.656;23.236;2022-08-16T01:26:30;93306.00;;;19.33;92.77
11750;BME280;5932;42.656;23.236;2022-08-16T01:28:59;93310.28;;;19.34;92.52
11750;BME280;5932;42.656;23.236;2022-08-16T01:31:27;93303.25;;;19.33;91.62
11750;BME280;5932;42.656;23.236;2022-08-16T01:33:54;93311.78;;;19.35;92.26
11750;BME280;5932;42.656;23.236;2022-08-16T01:36:21;93302.59;;;19.38;92.42
11750;BME280;5932;42.656;23.236;2022-08-16T01:38:49;93310.28;;;19.34;92.69
11750;BME280;5932;42.656;23.236;2022-08-16T01:41:19;93319.28;;;19.34;92.94
11750;BME280;5932;42.656;23.236;2022-08-16T01:43:47;93314.69;;;19.31;93.62
11750;BME280;5932;42.656;23.236;2022-08-16T01:46:21;93313.56;;;19.23;94.57
11750;BME280;5932;42.656;23.236;2022-08-16T01:48:50;93306.38;;;19.26;94.49
11750;BME280;5932;42.656;23.236;2022-08-16T01:51:19;93308.91;;;19.29;94.70
11750;BME280;5932;42.656;23.236;2022-08-16T01:53:47;93300.97;;;19.31;94.66
11750;BME280;5932;42.656;23.236;2022-08-16T01:56:14;93305.84;;;19.36;94.75
11750;BME280;5932;42.656;23.236;2022-08-16T01:58:42;93308.47;;;19.31;94.13
11750;BME280;5932;42.656;23.236;2022-08-16T02:01:09;93301.72;;;19.32;94.81
11750;BME280;5932;42.656;23.236;2022-08-16T02:03:36;93317.75;;;19.33;95.60
11750;BME280;5932;42.656;23.236;2022-08-16T02:06:03;93321.75;;;19.32;94.54
11750;BME280;5932;42.656;23.236;2022-08-16T02:08:29;93327.31;;;19.38;94.02
11750;BME280;5932;42.656;23.236;2022-08-16T02:10:56;93332.53;;;19.36;94.96
11750;BME280;5932;42.656;23.236;2022-08-16T02:13:23;93331.56;;;19.39;93.62
11750;BME280;5932;42.656;23.236;2022-08-16T02:15:51;93340.28;;;19.37;93.56
11750;BME280;5932;42.656;23.236;2022-08-16T02:18:18;93369.38;;;19.44;91.76
11750;BME280;5932;42.656;23.236;2022-08-16T02:20:49;93375.44;;;19.33;92.60
11750;BME280;5932;42.656;23.236;2022-08-16T02:23:17;93379.75;;;19.25;93.42
11750;BME280;5932;42.656;23.236;2022-08-16T02:25:44;93388.38;;;19.18;94.34
11750;BME280;5932;42.656;23.236;2022-08-16T02:28:12;93402.97;;;19.24;93.84
11750;BME280;5932;42.656;23.236;2022-08-16T02:30:39;93403.25;;;19.26;91.78
11750;BME280;5932;42.656;23.236;2022-08-16T02:33:08;93405.22;;;19.26;91.38
11750;BME280;5932;42.656;23.236;2022-08-16T02:35:35;93399.16;;;19.22;90.92
11750;BME280;5932;42.656;23.236;2022-08-16T02:38:03;93386.41;;;19.19;91.15
11750;BME280;5932;42.656;23.236;2022-08-16T02:40:30;93398.81;;;19.29;90.22
11750;BME280;5932;42.656;23.236;2022-08-16T02:42:57;93387.66;;;19.32;90.62
11750;BME280;5932;42.656;23.236;2022-08-16T02:45:26;93380.16;;;19.33;88.43
11750;BME280;5932;42.656;23.236;2022-08-16T02:47:53;93379.13;;;19.45;88.33
11750;BME280;5932;42.656;23.236;2022-08-16T02:50:22;93363.59;;;19.42;88.55
11750;BME280;5932;42.656;23.236;2022-08-16T02:52:49;93378.53;;;19.41;88.18
11750;BME280;5932;42.656;23.236;2022-08-16T02:55:16;93385.25;;;19.25;88.22
11750;BME280;5932;42.656;23.236;2022-08-16T02:57:43;93379.28;;;19.12;88.36
11750;BME280;5932;42.656;23.236;2022-08-16T03:00:11;93376.25;;;18.96;89.28
11750;BME280;5932;42.656;23.236;2022-08-16T03:02:39;93379.47;;;18.94;89.31
11750;BME280;5932;42.656;23.236;2022-08-16T03:05:10;93364.41;;;18.90;88.26
11750;BME280;5932;42.656;23.236;2022-08-16T03:07:38;93354.09;;;18.85;89.18
11750;BME280;5932;42.656;23.236;2022-08-16T03:10:08;93346.81;;;18.82;89.27
11750;BME280;5932;42.656;23.236;2022-08-16T03:12:35;93351.34;;;18.70;89.77
11750;BME280;5932;42.656;23.236;2022-08-16T03:15:03;93342.81;;;18.68;89.96
11750;BME280;5932;42.656;23.236;2022-08-16T03:17:30;93344.41;;;18.60;90.43
11750;BME280;5932;42.656;23.236;2022-08-16T03:19:57;93326.13;;;18.42;91.22
11750;BME280;5932;42.656;23.236;2022-08-16T03:22:24;93330.22;;;18.38;91.73
11750;BME280;5932;42.656;23.236;2022-08-16T03:24:52;93330.78;;;18.27;92.45
11750;BME280;5932;42.656;23.236;2022-08-16T03:27:19;93336.31;;;18.18;93.62
11750;BME280;5932;42.656;23.236;2022-08-16T03:29:45;93340.47;;;18.14;93.85
11750;BME280;5932;42.656;23.236;2022-08-16T03:32:12;93326.13;;;17.95;95.14
11750;BME280;5932;42.656;23.236;2022-08-16T03:34:39;93337.44;;;17.88;95.80
11750;BME280;5932;42.656;23.236;2022-08-16T03:37:06;93338.91;;;17.98;95.13
11750;BME280;5932;42.656;23.236;2022-08-16T03:39:33;93336.28;;;18.04;94.71
11750;BME280;5932;42.656;23.236;2022-08-16T03:42:01;93330.63;;;18.07;94.46
11750;BME280;5932;42.656;23.236;2022-08-16T03:44:28;93340.63;;;18.10;94.29
11750;BME280;5932;42.656;23.236;2022-08-16T03:46:55;93332.69;;;18.12;94.15
11750;BME280;5932;42.656;23.236;2022-08-16T03:49:21;93333.66;;;18.09;94.13
11750;BME280;5932;42.656;23.236;2022-08-16T03:51:48;93334.34;;;18.19;93.66
11750;BME280;5932;42.656;23.236;2022-08-16T03:54:15;93326.69;;;18.23;93.69
11750;BME280;5932;42.656;23.236;2022-08-16T03:56:42;93335.84;;;18.20;93.50
11750;BME280;5932;42.656;23.236;2022-08-16T03:59:10;93337.88;;;18.34;92.53
11750;BME280;5932;42.656;23.236;2022-08-16T04:01:38;93346.22;;;18.39;92.74
11750;BME280;5932;42.656;23.236;2022-08-16T04:04:05;93342.97;;;18.50;92.90
11750;BME280;5932;42.656;23.236;2022-08-16T04:06:32;93344.13;;;18.58;91.92
11750;BME280;5932;42.656;23.236;2022-08-16T04:08:59;93346.44;;;18.74;90.39
11750;BME280;5932;42.656;23.236;2022-08-16T04:11:25;93344.06;;;18.82;89.97
11750;BME280;5932;42.656;23.236;2022-08-16T04:13:52;93340.84;;;18.83;89.17
11750;BME280;5932;42.656;23.236;2022-08-16T04:16:21;93334.22;;;18.75;89.12
11750;BME280;5932;42.656;23.236;2022-08-16T04:18:47;93335.91;;;18.73;90.64
11750;BME280;5932;42.656;23.236;2022-08-16T04:21:14;93341.22;;;18.76;91.73
11750;BME280;5932;42.656;23.236;2022-08-16T04:23:41;93335.91;;;18.87;92.10
11750;BME280;5932;42.656;23.236;2022-08-16T04:26:08;93324.75;;;18.91;92.38
11750;BME280;5932;42.656;23.236;2022-08-16T04:28:35;93336.41;;;19.00;92.44
11750;BME280;5932;42.656;23.236;2022-08-16T04:31:02;93338.00;;;19.07;91.90
11750;BME280;5932;42.656;23.236;2022-08-16T04:33:31;93337.25;;;19.21;91.85
11750;BME280;5932;42.656;23.236;2022-08-16T04:35:58;93332.34;;;19.25;92.33
11750;BME280;5932;42.656;23.236;2022-08-16T04:38:26;93328.75;;;19.33;91.66
11750;BME280;5932;42.656;23.236;2022-08-16T04:40:53;93328.38;;;19.40;91.79
11750;BME280;5932;42.656;23.236;2022-08-16T04:43:21;93329.00;;;19.50;92.41
11750;BME280;5932;42.656;23.236;2022-08-16T04:45:48;93320.28;;;19.51;91.40
11750;BME280;5932;42.656;23.236;2022-08-16T04:48:15;93322.84;;;19.55;92.06
11750;BME280;5932;42.656;23.236;2022-08-16T04:50:43;93318.94;;;19.62;91.08
11750;BME280;5932;42.656;23.236;2022-08-16T04:53:10;93332.56;;;19.71;89.58
11750;BME280;5932;42.656;23.236;2022-08-16T04:55:37;93334.16;;;19.77;87.61
11750;BME280;5932;42.656;23.236;2022-08-16T04:58:05;93350.16;;;19.79;87.55
11750;BME280;5932;42.656;23.236;2022-08-16T05:00:32;93355.88;;;19.75;87.35
11750;BME280;5932;42.656;23.236;2022-08-16T05:03:01;93362.00;;;19.85;87.60
11750;BME280;5932;42.656;23.236;2022-08-16T05:05:30;93361.41;;;19.95;87.89
11750;BME280;5932;42.656;23.236;2022-08-16T05:07:58;93356.72;;;20.01;88.55
11750;BME280;5932;42.656;23.236;2022-08-16T05:10:26;93357.16;;;20.14;86.71
11750;BME280;5932;42.656;23.236;2022-08-16T05:12:53;93358.75;;;20.21;86.08
11750;BME280;5932;42.656;23.236;2022-08-16T05:15:20;93363.13;;;20.27;85.11
11750;BME280;5932;42.656;23.236;2022-08-16T05:17:46;93368.00;;;20.38;85.40
11750;BME280;5932;42.656;23.236;2022-08-16T05:20:14;93364.06;;;20.45;86.24
11750;BME280;5932;42.656;23.236;2022-08-16T05:22:40;93372.22;;;20.54;88.50
11750;BME280;5932;42.656;23.236;2022-08-16T05:25:10;93372.22;;;20.54;89.54
11750;BME280;5932;42.656;23.236;2022-08-16T05:27:38;93363.69;;;20.52;92.61
11750;BME280;5932;42.656;23.236;2022-08-16T05:30:07;93359.28;;;20.60;92.01
11750;BME280;5932;42.656;23.236;2022-08-16T05:32:38;93356.84;;;20.67;92.10
11750;BME280;5932;42.656;23.236;2022-08-16T05:35:07;93345.91;;;20.73;91.75
11750;BME280;5932;42.656;23.236;2022-08-16T05:37:35;93344.91;;;20.76;91.09
11750;BME280;5932;42.656;23.236;2022-08-16T05:40:03;93330.16;;;20.73;90.74
11750;BME280;5932;42.656;23.236;2022-08-16T05:42:32;93332.69;;;20.77;91.17
11750;BME280;5932;42.656;23.236;2022-08-16T05:44:59;93347.31;;;20.88;89.79
11750;BME280;5932;42.656;23.236;2022-08-16T05:47:26;93350.66;;;20.98;90.35
11750;BME280;5932;42.656;23.236;2022-08-16T05:49:53;93357.97;;;21.01;90.79
11750;BME280;5932;42.656;23.236;2022-08-16T05:52:20;93352.94;;;20.99;91.76
11750;BME280;5932;42.656;23.236;2022-08-16T05:54:47;93355.75;;;21.05;92.01
11750;BME280;5932;42.656;23.236;2022-08-16T05:57:14;93348.75;;;21.04;91.78
11750;BME280;5932;42.656;23.236;2022-08-16T05:59:43;93352.06;;;21.08;90.54
11750;BME280;5932;42.656;23.236;2022-08-16T06:02:11;93368.31;;;21.06;89.41
11750;BME280;5932;42.656;23.236;2022-08-16T06:04:38;93367.63;;;20.91;90.92
11750;BME280;5932;42.656;23.236;2022-08-16T06:07:06;93372.69;;;20.98;90.32
11750;BME280;5932;42.656;23.236;2022-08-16T06:09:33;93363.94;;;20.99;90.83
11750;BME280;5932;42.656;23.236;2022-08-16T06:12:00;93364.28;;;21.07;90.69
11750;BME280;5932;42.656;23.236;2022-08-16T06:14:28;93362.91;;;21.17;91.09
11750;BME280;5932;42.656;23.236;2022-08-16T06:16:56;93370.94;;;21.20;89.59
11750;BME280;5932;42.656;23.236;2022-08-16T06:19:23;93367.00;;;21.27;89.44
11750;BME280;5932;42.656;23.236;2022-08-16T06:21:50;93365.53;;;21.32;89.60
11750;BME280;5932;42.656;23.236;2022-08-16T06:24:16;93376.16;;;21.44;89.33
11750;BME280;5932;42.656;23.236;2022-08-16T06:26:43;93367.75;;;21.53;89.87
11750;BME280;5932;42.656;23.236;2022-08-16T06:29:10;93368.34;;;21.68;88.67
11750;BME280;5932;42.656;23.236;2022-08-16T06:31:37;93364.47;;;21.80;87.06
11750;BME280;5932;42.656;23.236;2022-08-16T06:34:05;93364.78;;;21.88;85.90
11750;BME280;5932;42.656;23.236;2022-08-16T06:36:32;93364.25;;;21.84;86.26
11750;BME280;5932;42.656;23.236;2022-08-16T06:38:59;93356.22;;;21.86;86.96
11750;BME280;5932;42.656;23.236;2022-08-16T06:41:26;93371.13;;;21.99;85.82
11750;BME280;5932;42.656;23.236;2022-08-16T06:43:53;93356.81;;;22.01;85.82
11750;BME280;5932;42.656;23.236;2022-08-16T06:46:23;93360.66;;;22.14;85.52
11750;BME280;5932;42.656;23.236;2022-08-16T06:48:50;93353.94;;;22.21;84.62
11750;BME280;5932;42.656;23.236;2022-08-16T06:51:19;93353.75;;;22.36;82.68
11750;BME280;5932;42.656;23.236;2022-08-16T06:53:46;93353.75;;;22.41;82.71
11750;BME280;5932;42.656;23.236;2022-08-16T06:56:13;93350.06;;;22.50;82.08
11750;BME280;5932;42.656;23.236;2022-08-16T06:58:40;93352.41;;;22.62;80.73
11750;BME280;5932;42.656;23.236;2022-08-16T07:01:07;93342.88;;;22.69;80.63
11750;BME280;5932;42.656;23.236;2022-08-16T07:03:33;93334.66;;;22.91;83.55
11750;BME280;5932;42.656;23.236;2022-08-16T07:06:00;93342.19;;;23.01;83.14
11750;BME280;5932;42.656;23.236;2022-08-16T07:08:29;93342.00;;;23.11;81.33
11750;BME280;5932;42.656;23.236;2022-08-16T07:10:56;93355.63;;;23.36;67.16
11750;BME280;5932;42.656;23.236;2022-08-16T07:13:24;93356.63;;;23.50;64.26
11750;BME280;5932;42.656;23.236;2022-08-16T07:15:51;93348.84;;;23.65;61.19
11750;BME280;5932;42.656;23.236;2022-08-16T07:18:19;93345.81;;;23.74;62.18
11750;BME280;5932;42.656;23.236;2022-08-16T07:20:47;93341.03;;;23.74;59.77
11750;BME280;5932;42.656;23.236;2022-08-16T07:23:15;93333.25;;;23.78;58.83
11750;BME280;5932;42.656;23.236;2022-08-16T07:25:44;93323.44;;;23.88;60.52
11750;BME280;5932;42.656;23.236;2022-08-16T07:28:13;93322.44;;;24.03;58.96
11750;BME280;5932;42.656;23.236;2022-08-16T07:30:40;93330.47;;;24.12;60.82
11750;BME280;5932;42.656;23.236;2022-08-16T07:33:07;93333.72;;;24.16;58.58
11750;BME280;5932;42.656;23.236;2022-08-16T07:35:35;93330.91;;;24.27;58.94
11750;BME280;5932;42.656;23.236;2022-08-16T07:38:03;93335.22;;;24.28;57.63
11750;BME280;5932;42.656;23.236;2022-08-16T07:40:30;93336.69;;;24.29;56.64
11750;BME280;5932;42.656;23.236;2022-08-16T07:42:59;93338.94;;;24.30;57.04
11750;BME280;5932;42.656;23.236;2022-08-16T07:45:25;93341.00;;;24.30;57.01
11750;BME280;5932;42.656;23.236;2022-08-16T07:47:52;93340.44;;;24.37;56.26
11750;BME280;5932;42.656;23.236;2022-08-16T07:50:20;93324.59;;;24.43;56.33
11750;BME280;5932;42.656;23.236;2022-08-16T07:52:46;93344.91;;;24.62;56.69
11750;BME280;5932;42.656;23.236;2022-08-16T07:55:14;93342.38;;;24.75;56.20
11750;BME280;5932;42.656;23.236;2022-08-16T07:57:42;93339.81;;;24.83;54.54
11750;BME280;5932;42.656;23.236;2022-08-16T08:00:11;93348.03;;;24.99;53.97
11750;BME280;5932;42.656;23.236;2022-08-16T08:02:39;93341.47;;;25.02;55.07
11750;BME280;5932;42.656;23.236;2022-08-16T08:05:06;93343.22;;;25.05;53.01
11750;BME280;5932;42.656;23.236;2022-08-16T08:07:33;93351.44;;;25.22;53.55
11750;BME280;5932;42.656;23.236;2022-08-16T08:10:00;93349.13;;;25.31;52.68
11750;BME280;5932;42.656;23.236;2022-08-16T08:12:27;93349.59;;;25.41;53.38
11750;BME280;5932;42.656;23.236;2022-08-16T08:14:54;93346.47;;;25.50;53.08
11750;BME280;5932;42.656;23.236;2022-08-16T08:17:23;93342.88;;;25.61;52.22
11750;BME280;5932;42.656;23.236;2022-08-16T08:19:49;93352.28;;;25.82;53.15
11750;BME280;5932;42.656;23.236;2022-08-16T08:22:16;93336.22;;;25.75;50.40
11750;BME280;5932;42.656;23.236;2022-08-16T08:24:43;93352.66;;;25.97;52.16
11750;BME280;5932;42.656;23.236;2022-08-16T08:27:11;93361.69;;;26.03;50.23
11750;BME280;5932;42.656;23.236;2022-08-16T08:29:37;93354.34;;;26.05;51.66
11750;BME280;5932;42.656;23.236;2022-08-16T08:32:05;93357.81;;;26.17;50.49
11750;BME280;5932;42.656;23.236;2022-08-16T08:34:34;93357.06;;;26.16;50.42
11750;BME280;5932;42.656;23.236;2022-08-16T08:37:02;93351.56;;;26.11;50.18
11750;BME280;5932;42.656;23.236;2022-08-16T08:39:29;93358.91;;;26.32;52.84
11750;BME280;5932;42.656;23.236;2022-08-16T08:41:56;93358.47;;;26.53;52.61
11750;BME280;5932;42.656;23.236;2022-08-16T08:44:23;93369.13;;;26.67;49.46
11750;BME280;5932;42.656;23.236;2022-08-16T08:46:50;93367.63;;;26.72;49.28
11750;BME280;5932;42.656;23.236;2022-08-16T08:49:21;93372.97;;;26.64;49.80
11750;BME280;5932;42.656;23.236;2022-08-16T08:51:49;93363.78;;;26.75;48.86
11750;BME280;5932;42.656;23.236;2022-08-16T08:54:16;93373.00;;;26.59;49.47
11750;BME280;5932;42.656;23.236;2022-08-16T08:56:43;93373.72;;;26.65;50.38
11750;BME280;5932;42.656;23.236;2022-08-16T08:59:10;93364.00;;;26.77;50.95
11750;BME280;5932;42.656;23.236;2022-08-16T09:01:38;93368.91;;;26.89;48.61
11750;BME280;5932;42.656;23.236;2022-08-16T09:04:06;93359.59;;;26.87;49.31
11750;BME280;5932;42.656;23.236;2022-08-16T09:06:33;93368.16;;;26.89;51.00
11750;BME280;5932;42.656;23.236;2022-08-16T09:09:02;93363.66;;;27.04;51.22
11750;BME280;5932;42.656;23.236;2022-08-16T09:11:30;93361.19;;;27.19;49.77
11750;BME280;5932;42.656;23.236;2022-08-16T09:13:58;93371.81;;;27.40;48.43
11750;BME280;5932;42.656;23.236;2022-08-16T09:16:24;93371.41;;;27.49;47.19
11750;BME280;5932;42.656;23.236;2022-08-16T09:18:51;93359.84;;;27.45;46.19
11750;BME280;5932;42.656;23.236;2022-08-16T09:21:20;93366.16;;;27.64;48.51
11750;BME280;5932;42.656;23.236;2022-08-16T09:23:47;93359.44;;;27.72;48.20
11750;BME280;5932;42.656;23.236;2022-08-16T09:26:16;93369.56;;;27.70;47.10
11750;BME280;5932;42.656;23.236;2022-08-16T09:28:43;93363.19;;;27.75;46.83
11750;BME280;5932;42.656;23.236;2022-08-16T09:31:11;93356.50;;;27.65;45.13
11750;BME280;5932;42.656;23.236;2022-08-16T09:33:38;93369.88;;;27.35;46.43
11750;BME280;5932;42.656;23.236;2022-08-16T09:36:07;93368.94;;;27.45;47.34
11750;BME280;5932;42.656;23.236;2022-08-16T09:38:35;93351.41;;;27.69;48.03
11750;BME280;5932;42.656;23.236;2022-08-16T09:41:04;93354.34;;;27.89;47.37
11750;BME280;5932;42.656;23.236;2022-08-16T09:43:34;93359.28;;;27.65;47.34
11750;BME280;5932;42.656;23.236;2022-08-16T09:46:02;93342.31;;;27.31;47.66
11750;BME280;5932;42.656;23.236;2022-08-16T09:48:32;93358.66;;;27.72;47.31
11750;BME280;5932;42.656;23.236;2022-08-16T09:50:59;93363.00;;;27.86;47.05
11750;BME280;5932;42.656;23.236;2022-08-16T09:53:26;93366.72;;;28.07;47.79
11750;BME280;5932;42.656;23.236;2022-08-16T09:55:54;93359.66;;;28.06;47.44
11750;BME280;5932;42.656;23.236;2022-08-16T09:58:24;93355.09;;;28.22;46.08
11750;BME280;5932;42.656;23.236;2022-08-16T10:00:53;93362.59;;;28.13;44.82
11750;BME280;5932;42.656;23.236;2022-08-16T10:03:21;93363.69;;;28.24;43.04
11750;BME280;5932;42.656;23.236;2022-08-16T10:05:48;93358.75;;;28.43;41.86
11750;BME280;5932;42.656;23.236;2022-08-16T10:08:15;93358.44;;;28.46;45.22
11750;BME280;5932;42.656;23.236;2022-08-16T10:10:43;93361.13;;;28.39;43.77
11750;BME280;5932;42.656;23.236;2022-08-16T10:13:30;93358.00;;;28.42;42.99
11750;BME280;5932;42.656;23.236;2022-08-16T10:16:00;93353.97;;;28.69;43.17
11750;BME280;5932;42.656;23.236;2022-08-16T10:18:28;93366.19;;;28.79;41.52
11750;BME280;5932;42.656;23.236;2022-08-16T10:20:56;93359.09;;;28.39;40.90
11750;BME280;5932;42.656;23.236;2022-08-16T10:23:24;93350.19;;;28.54;41.07
11750;BME280;5932;42.656;23.236;2022-08-16T10:25:51;93348.09;;;28.73;40.10
11750;BME280;5932;42.656;23.236;2022-08-16T10:28:19;93343.78;;;28.72;40.65
11750;BME280;5932;42.656;23.236;2022-08-16T10:30:46;93351.00;;;28.80;42.38
11750;BME280;5932;42.656;23.236;2022-08-16T10:33:14;93363.31;;;28.72;39.81
11750;BME280;5932;42.656;23.236;2022-08-16T10:35:42;93357.66;;;28.20;41.93
11750;BME280;5932;42.656;23.236;2022-08-16T10:38:10;93360.13;;;28.10;41.90
11750;BME280;5932;42.656;23.236;2022-08-16T10:40:37;93354.28;;;28.40;43.43
11750;BME280;5932;42.656;23.236;2022-08-16T10:43:04;93346.91;;;28.55;41.61
11750;BME280;5932;42.656;23.236;2022-08-16T10:45:31;93351.41;;;28.71;42.34
11750;BME280;5932;42.656;23.236;2022-08-16T10:47:58;93363.97;;;28.65;41.42
11750;BME280;5932;42.656;23.236;2022-08-16T10:50:27;93357.72;;;28.72;41.67
11750;BME280;5932;42.656;23.236;2022-08-16T10:52:54;93356.88;;;28.77;41.51
11750;BME280;5932;42.656;23.236;2022-08-16T10:55:22;93354.09;;;28.77;40.94
11750;BME280;5932;42.656;23.236;2022-08-16T10:57:49;93341.84;;;28.93;41.15
11750;BME280;5932;42.656;23.236;2022-08-16T11:00:17;93342.19;;;29.16;39.73
11750;BME280;5932;42.656;23.236;2022-08-16T11:02:44;93341.72;;;29.25;40.05
11750;BME280;5932;42.656;23.236;2022-08-16T11:05:13;93350.53;;;29.49;41.51
11750;BME280;5932;42.656;23.236;2022-08-16T11:07:43;93355.09;;;29.73;41.29
11750;BME280;5932;42.656;23.236;2022-08-16T11:10:11;93361.06;;;29.90;40.16
11750;BME280;5932;42.656;23.236;2022-08-16T11:12:38;93354.72;;;30.10;39.76
11750;BME280;5932;42.656;23.236;2022-08-16T11:15:06;93350.38;;;30.02;38.80
11750;BME280;5932;42.656;23.236;2022-08-16T11:17:33;93353.75;;;29.87;39.98
11750;BME280;5932;42.656;23.236;2022-08-16T11:20:01;93341.75;;;29.79;40.21
11750;BME280;5932;42.656;23.236;2022-08-16T11:22:28;93342.66;;;29.74;39.50
11750;BME280;5932;42.656;23.236;2022-08-16T11:24:57;93339.91;;;29.61;38.93
11750;BME280;5932;42.656;23.236;2022-08-16T11:27:23;93344.91;;;29.75;40.27
11750;BME280;5932;42.656;23.236;2022-08-16T11:29:53;93342.44;;;29.93;41.18
11750;BME280;5932;42.656;23.236;2022-08-16T11:32:21;93331.00;;;30.24;40.07
11750;BME280;5932;42.656;23.236;2022-08-16T11:34:49;93331.47;;;30.36;39.67
11750;BME280;5932;42.656;23.236;2022-08-16T11:37:15;93337.41;;;30.32;39.88
11750;BME280;5932;42.656;23.236;2022-08-16T11:39:42;93330.66;;;30.07;38.69
11750;BME280;5932;42.656;23.236;2022-08-16T11:42:10;93345.66;;;30.17;40.06
11750;BME280;5932;42.656;23.236;2022-08-16T11:44:37;93337.53;;;30.27;39.10
11750;BME280;5932;42.656;23.236;2022-08-16T11:47:04;93341.81;;;30.48;37.98
11750;BME280;5932;42.656;23.236;2022-08-16T11:49:31;93338.78;;;30.67;38.69
11750;BME280;5932;42.656;23.236;2022-08-16T11:51:59;93336.81;;;30.83;37.47
11750;BME280;5932;42.656;23.236;2022-08-16T11:54:26;93338.69;;;30.31;38.14
11750;BME280;5932;42.656;23.236;2022-08-16T11:56:52;93342.06;;;30.58;38.32
11750;BME280;5932;42.656;23.236;2022-08-16T11:59:21;93344.25;;;30.80;37.90
11750;BME280;5932;42.656;23.236;2022-08-16T12:01:47;93333.91;;;30.96;37.77
11750;BME280;5932;42.656;23.236;2022-08-16T12:04:14;93329.00;;;31.17;36.06
11750;BME280;5932;42.656;23.236;2022-08-16T12:06:41;93328.06;;;31.22;35.76
11750;BME280;5932;42.656;23.236;2022-08-16T12:09:08;93335.88;;;31.51;35.68
11750;BME280;5932;42.656;23.236;2022-08-16T12:11:35;93321.56;;;31.85;34.71
11750;BME280;5932;42.656;23.236;2022-08-16T12:14:03;93313.16;;;31.85;35.74
11750;BME280;5932;42.656;23.236;2022-08-16T12:16:32;93326.41;;;31.77;33.82
11750;BME280;5932;42.656;23.236;2022-08-16T12:19:00;93311.84;;;31.79;35.54
11750;BME280;5932;42.656;23.236;2022-08-16T12:21:26;93314.13;;;31.37;35.34
11750;BME280;5932;42.656;23.236;2022-08-16T12:23:53;93307.34;;;31.17;35.63
11750;BME280;5932;42.656;23.236;2022-08-16T12:26:20;93313.28;;;31.06;34.40
11750;BME280;5932;42.656;23.236;2022-08-16T12:28:47;93314.84;;;30.58;35.20
11750;BME280;5932;42.656;23.236;2022-08-16T12:31:15;93313.38;;;30.57;34.74
11750;BME280;5932;42.656;23.236;2022-08-16T12:33:43;93291.19;;;30.59;36.13
11750;BME280;5932;42.656;23.236;2022-08-16T12:36:10;93291.22;;;30.95;36.24
11750;BME280;5932;42.656;23.236;2022-08-16T12:38:38;93290.72;;;31.12;34.56
11750;BME280;5932;42.656;23.236;2022-08-16T12:41:05;93290.47;;;31.45;34.86
11750;BME280;5932;42.656;23.236;2022-08-16T12:43:31;93284.16;;;31.52;33.21
11750;BME280;5932;42.656;23.236;2022-08-16T12:45:59;93285.66;;;31.03;33.79
11750;BME280;5932;42.656;23.236;2022-08-16T12:48:30;93280.41;;;30.63;33.93
11750;BME280;5932;42.656;23.236;2022-08-16T12:51:18;93283.72;;;30.90;32.79
11750;BME280;5932;42.656;23.236;2022-08-16T12:53:46;93302.25;;;31.01;29.13
11750;BME280;5932;42.656;23.236;2022-08-16T12:56:17;93294.25;;;30.77;27.92
11750;BME280;5932;42.656;23.236;2022-08-16T12:58:45;93295.47;;;30.60;26.64
11750;BME280;5932;42.656;23.236;2022-08-16T13:01:15;93285.25;;;30.63;25.74
11750;BME280;5932;42.656;23.236;2022-08-16T13:03:42;93285.72;;;30.82;26.76